mai
31

MOTOCROSS MONDIAL – GP D’ANGLETERRE : WARM-UP

youthstreamukgpbanner09

MX1 – Warm-up Classification
Pos Nr Rider Nat. Fed. Bike Bestlaptime in lap Diff. First Diff. Prev. Tot. Laps Speed

1 9 de Dycker, Ken BEL FMB Suzuki 1:51.251 7 0:00.000 0:00.000 8 51.128
2 8 Leok, Tanel EST EMF Yamaha 1:52.215 8 0:00.964 0:00.964 8 50.688
3 101 Pichon, Mickael FRA FFM Honda 1:52.277 7 0:01.026 0:00.062 7 50.66
4 7 Barragan, Jonathan ESP RFME KTM 1:52.362 8 0:01.111 0:00.085 8 50.622
5 20 Aranda, Gregory FRA FFM Kawasaki 1:52.545 7 0:01.294 0:00.183 8 50.54
6 19 Philippaerts, David ITA FMI Yamaha 1:53.337 6 0:02.086 0:00.792 7 50.187
7 5 Nagl, Maximilian GER DMSB KTM 1:53.356 7 0:02.105 0:00.019 7 50.178
8 6 Coppins, Joshua NZL MNZ Yamaha 1:53.776 9 0:02.525 0:00.420 9 49.993
9 222 Cairoli, Antonio ITA FMI Yamaha 1:54.094 7 0:02.843 0:00.318 7 49.854
10 60 Anderson, Bradley GBR ACU Honda 1:54.129 7 0:02.878 0:00.035 7 49.838
11 111 Leok, Aigar EST EMF TM 1:55.256 7 0:04.005 0:01.127 7 49.351
12 37 Krestinov, Gert EST EMF KTM 1:55.545 7 0:04.294 0:00.289 7 49.228
13 25 Desalle, Clement BEL FMB Honda 1:55.705 4 0:04.454 0:00.160 9 49.16
14 32 Priem, Manuel BEL FMB Aprilia 1:55.714 3 0:04.463 0:00.009 9 49.156
15 40 Rose, Jordan GBR ACU Honda 1:55.770 6 0:04.519 0:00.056 8 49.132
16 24 Church, Tom GBR ACU CCM 1:56.005 3 0:04.754 0:00.235 6 49.032
17 15 Bill, Julien SUI FMS Aprilia 1:56.657 5 0:05.406 0:00.652 6 48.758
18 115 Campano, Carlos ESP RFME Yamaha 1:57.422 6 0:06.171 0:00.765 7 48.441
19 121 Mackenzie, Bryan GBR ACU Honda 1:57.467 7 0:06.216 0:00.045 8 48.422
20 56 van Vijfeijken, Rob NED KNMV Yamaha 1:57.506 7 0:06.255 0:00.039 7 48.406
21 223 Nunn, Carl GBR ACU Suzuki 1:58.168 2 0:06.917 0:00.662 6 48.135
22 31 Snow, Alex GBR ACU KTM 1:58.362 5 0:07.111 0:00.194 7 48.056
23 128 Columb, Scott NZL MNZ Suzuki 1:58.591 7 0:07.340 0:00.229 7 47.963
24 77 Terreblanche, Shannon RSA MSA Kawasaki 1:58.665 3 0:07.414 0:00.074 7 47.933
25 70 Banks-Browne, Elliot GBR ACU Kawasaki 1:58.925 5 0:07.674 0:00.260 7 47.828
26 46 Dougan, Jason GBR ACU CCM 1:59.057 4 0:07.806 0:00.132 5 47.775
27 181 Kadlecek, Michal CZE ACCR TM 1:59.524 6 0:08.273 0:00.467 6 47.589
28 74 Steinbergs, Ivo LAT LAMSF Honda 1:59.571 7 0:08.320 0:00.047 7 47.57
29 57 Neugebauer, Filip CZE DMSB Kawasaki 1:59.872 7 0:08.621 0:00.301 8 47.451
30 227 Whatley, Kristian GBR ACU Kawasaki 2:00.074 4 0:08.823 0:00.202 7 47.371
31 48 Coutts, Dorren GBR ACU Yamaha 2:01.607 8 0:10.356 0:01.533 8 46.774
32 45 Leonce, Loic FRA FFM Aprilia 2:01.690 4 0:10.439 0:00.083 6 46.742
33 55 Bixby, Steve GBR ACU Husaberg 2:06.980 5 0:15.729 0:05.290 6 44.794
34 211 Mackenzie, Billy GBR ACU Honda 2:25.743 2 0:34.492 0:18.763 2 39.028

MX2 – Warm-up Classification
Pos Nr Rider Nat. Fed. Bike Bestlaptime in lap Diff. First Diff. Prev. Tot. Laps Speed
1 25 Musquin, Marvin FRA FFM KTM 1:51.899 5 0:00.000 0:00.000 8 50.832
2 3 Aubin, Nicolas FRA FFM Yamaha 1:54.573 7 0:02.674 0:02.674 7 49.645

3 13 Monni, Manuel ITA FMI Yamaha 1:54.613 8 0:02.714 0:00.040 8 49.628
4 21 Paulin, Gautier FRA MCM Kawasaki 1:54.928 6 0:03.029 0:00.315 6 49.492
5 5 Goncalves, Rui POR FMP KTM 1:55.007 7 0:03.108 0:00.079 8 49.458
6 121 Boog, Xavier FRA FFM Suzuki 1:55.202 4 0:03.303 0:00.195 8 49.374
7 94 Roczen, Ken GER DMSB Suzuki 1:55.519 8 0:03.620 0:00.317 9 49.239
8 7 Sword, Stephen GBR ACU KTM 1:55.591 4 0:03.692 0:00.072 8 49.208
9 89 van Horebeek, Jeremy BEL FMB KTM 1:55.666 8 0:03.767 0:00.075 8 49.176
10 183 Frossard, Steven FRA FFM Kawasaki 1:56.131 3 0:04.232 0:00.465 6 48.979
11 33 Soubeyras, Cedric FRA FFM Yamaha 1:56.272 6 0:04.373 0:00.141 7 48.92
12 22 Boissiere, Anthony FRA FFM KTM 1:56.550 7 0:04.651 0:00.278 8 48.803

13 34 Roelants, Joel BEL FMB KTM 1:56.681 7 0:04.782 0:00.131 9 48.748
14 24 Butron Oliva, Jose Antonio ESP RFME Suzuki 1:57.651 6 0:05.752 0:00.970 6 48.346
15 64 Vongsana, Khounsith FRA FFM Honda 1:57.842 7 0:05.943 0:00.191 7 48.268
16 47 Leuret, Pascal FRA FFM Honda 1:57.930 6 0:06.031 0:00.088 7 48.232

17 131 Michek, Martin CZE ACCR TM 1:57.936 6 0:06.037 0:00.006 7 48.23
18 56 Bobryshev, Evgeny RUS MFR Yamaha 1:58.481 6 0:06.582 0:00.545 8 48.008
19 175 Larsen, Nikolai DEN DMU Suzuki 1:58.555 2 0:06.656 0:00.074 5 47.978
20 30 Klein Kromhof, Ceriel NED KNMV KTM 1:58.643 3 0:06.744 0:00.088 4 47.942
21 23 Tonus, Arnaud SUI FMS KTM 1:58.692 5 0:06.793 0:00.049 6 47.922
22 45 Nicholls, Jake GBR ACU KTM 1:58.698 5 0:06.799 0:00.006 8 47.92
23 75 Triest, Nick BEL FMB KTM 1:58.702 7 0:06.803 0:00.004 8 47.918
24 202 Larrieu, Loic FRA FFM Yamaha 1:58.927 3 0:07.028 0:00.225 3 47.828
25 519 Rombaut, Loic FRA FFM Kawasaki 1:58.962 4 0:07.063 0:00.035 7 47.814
26 37 Teillet, Valentin FRA FFM KTM 1:59.135 6 0:07.236 0:00.173 6 47.744

27 82 Bradshaw, Neville RSA ACU Honda 1:59.298 3 0:07.399 0:00.163 5 47.679
28 44 Kojima, Yohei JPN MFJ Suzuki 1:59.349 5 0:07.450 0:00.051 7 47.659
29 60 Elderfield, Scott GBR ACU Honda 1:59.532 6 0:07.633 0:00.183 7 47.586
30 119 Pocock, Mel GBR ACU Yamaha 1:59.760 3 0:07.861 0:00.228 6 47.495
31 501 Lupino, Alessandro ITA FMI Yamaha 2:00.003 2 0:08.104 0:00.243 2 47.399
32 14 Philippaerts, Deny ITA FMI Yamaha 2:00.239 7 0:08.340 0:00.236 7 47.306
33 335 Verbruggen, Dennis BEL FMB Honda 2:00.496 4 0:08.597 0:00.257 7 47.205
34 51 Smitka, Petr CZE ACCR KTM 2:00.612 5 0:08.713 0:00.116 8 47.159
35 555 Graeme, Irwin GBR MCUI KTM 2:03.193 3 0:11.294 0:02.581 6 46.171
36 153 Maddii, Marco ITA FMI Suzuki 2:03.262 4 0:11.363 0:00.069 4 46.146
37 95 Justs, Augusts LAT LAMSF KTM 2:04.295 4 0:12.396 0:01.033 6 45.762
38 39 Guarneri, Davide ITA FMI Yamaha 2:09.238 6 0:17.339 0:04.943 7 44.012
39 338 Osborne, Zach USA ACU Yamaha 2:18.770 1 0:26.871 0:09.532 3 40.989

youthstreammxsponso09

A voir aussi :

Le commentaires sont fermés.